createdAt,value
2022-09-30T00:00:11.452Z,5.19
2022-09-30T00:01:11.418Z,5.19
2022-09-30T00:02:11.592Z,5.19
2022-09-30T00:03:11.439Z,5.17
2022-09-30T00:04:11.810Z,5.17
2022-09-30T00:05:11.374Z,5.17
2022-09-30T00:06:11.319Z,5.19
2022-09-30T00:07:11.366Z,5.16
2022-09-30T00:08:11.329Z,5.19
2022-09-30T00:09:11.375Z,5.16
2022-09-30T00:10:11.331Z,5.16
2022-09-30T00:11:11.410Z,5.16
2022-09-30T00:12:11.250Z,5.16
2022-09-30T00:13:11.289Z,5.16
2022-09-30T00:14:11.290Z,5.16
2022-09-30T00:15:11.251Z,5.16
2022-09-30T00:16:11.363Z,5.14
2022-09-30T00:17:11.290Z,5.14
2022-09-30T00:18:11.221Z,5.13
2022-09-30T00:19:11.728Z,5.10
2022-09-30T00:20:11.377Z,5.10
2022-09-30T00:21:11.131Z,5.09
2022-09-30T00:22:11.159Z,5.09
2022-09-30T00:23:11.227Z,5.07
2022-09-30T00:24:11.140Z,5.07
2022-09-30T00:25:11.138Z,5.05
2022-09-30T00:26:11.108Z,5.04
2022-09-30T00:27:11.112Z,5.04
2022-09-30T00:28:11.116Z,5.02
2022-09-30T00:29:11.161Z,5.02
2022-09-30T00:30:11.130Z,5.01
2022-09-30T00:31:11.161Z,5.02
2022-09-30T00:32:11.085Z,5.01
2022-09-30T00:33:11.065Z,5.01
2022-09-30T00:34:11.138Z,5.01
2022-09-30T00:35:11.149Z,4.99
2022-09-30T00:36:11.086Z,4.98
2022-09-30T00:37:11.018Z,4.96
2022-09-30T00:38:11.036Z,4.95
2022-09-30T00:39:10.989Z,4.94
2022-09-30T00:40:11.090Z,4.91
2022-09-30T00:41:11.036Z,4.89
2022-09-30T00:42:11.338Z,4.89
2022-09-30T00:43:11.164Z,4.88
2022-09-30T00:44:10.963Z,4.86
2022-09-30T00:45:10.948Z,4.86
2022-09-30T00:46:11.166Z,4.84
2022-09-30T00:47:11.182Z,4.86
2022-09-30T00:48:11.099Z,4.84
2022-09-30T00:49:10.922Z,4.83
2022-09-30T00:50:11.270Z,4.86
2022-09-30T00:51:11.109Z,4.83
2022-09-30T00:52:11.306Z,4.83
2022-09-30T00:53:11.025Z,4.79
2022-09-30T00:54:10.830Z,4.83
2022-09-30T00:55:10.935Z,4.79
2022-09-30T00:56:10.850Z,4.80
2022-09-30T00:57:11.017Z,4.80
2022-09-30T00:58:10.950Z,4.79
2022-09-30T00:59:10.852Z,4.79
2022-09-30T01:00:10.792Z,4.79
2022-09-30T01:01:11.090Z,4.77
2022-09-30T01:02:10.882Z,4.79
2022-09-30T01:03:10.896Z,4.80
2022-09-30T01:04:10.888Z,4.80
2022-09-30T01:05:11.068Z,4.83
2022-09-30T01:06:10.737Z,4.80
2022-09-30T01:07:10.741Z,4.79
2022-09-30T01:08:11.175Z,4.80
2022-09-30T01:09:10.918Z,4.80
2022-09-30T01:10:10.664Z,4.79
2022-09-30T01:11:10.753Z,4.80
2022-09-30T01:12:10.815Z,4.83
2022-09-30T01:13:10.784Z,4.80
2022-09-30T01:14:10.742Z,4.79
2022-09-30T01:15:10.845Z,4.79
2022-09-30T01:16:10.693Z,4.79
2022-09-30T01:17:10.871Z,4.76
2022-09-30T01:18:10.707Z,4.76
2022-09-30T01:19:10.618Z,4.76
2022-09-30T01:20:10.815Z,4.76
2022-09-30T01:21:10.873Z,4.75
2022-09-30T01:22:10.760Z,4.76
2022-09-30T01:23:10.807Z,4.75
2022-09-30T01:24:10.722Z,4.73
2022-09-30T01:25:10.736Z,4.75
2022-09-30T01:26:10.721Z,4.73
2022-09-30T01:27:10.560Z,4.73
2022-09-30T01:28:10.625Z,4.72
2022-09-30T01:29:10.635Z,4.70
2022-09-30T01:30:10.521Z,4.69
2022-09-30T01:31:10.621Z,4.67
2022-09-30T01:32:10.565Z,4.65
2022-09-30T01:33:10.618Z,4.67
2022-09-30T01:34:10.649Z,4.65
2022-09-30T01:35:10.700Z,4.65
2022-09-30T01:36:10.670Z,4.64
2022-09-30T01:37:10.639Z,4.67
2022-09-30T01:38:10.560Z,4.64
2022-09-30T01:39:10.732Z,4.62
2022-09-30T01:40:10.464Z,4.62
2022-09-30T01:41:10.540Z,4.61
2022-09-30T01:42:10.525Z,4.59
2022-09-30T01:43:10.592Z,4.59
2022-09-30T01:44:10.384Z,4.58
2022-09-30T01:45:10.614Z,4.59
2022-09-30T01:46:10.360Z,4.57
2022-09-30T01:47:10.771Z,4.57
2022-09-30T01:48:10.352Z,4.57
2022-09-30T01:49:10.529Z,4.55
2022-09-30T01:50:10.472Z,4.55
2022-09-30T01:51:10.457Z,4.54
2022-09-30T01:52:10.382Z,4.52
2022-09-30T01:53:10.333Z,4.52
2022-09-30T01:54:10.437Z,4.54
2022-09-30T01:55:10.324Z,4.54
2022-09-30T01:56:10.251Z,4.51
2022-09-30T01:57:10.211Z,4.50
2022-09-30T01:58:10.315Z,4.51
2022-09-30T01:59:10.477Z,4.47
2022-09-30T02:00:10.466Z,4.47
2022-09-30T02:01:10.518Z,4.46
2022-09-30T02:02:10.437Z,4.46
2022-09-30T02:03:10.330Z,4.43
2022-09-30T02:04:10.131Z,4.42
2022-09-30T02:05:10.364Z,4.42
2022-09-30T02:06:10.382Z,4.40
2022-09-30T02:07:10.148Z,4.39
2022-09-30T02:08:10.211Z,4.39
2022-09-30T02:09:10.498Z,4.36
2022-09-30T02:10:10.461Z,4.34
2022-09-30T02:11:10.465Z,4.37
2022-09-30T02:12:10.212Z,4.36
2022-09-30T02:13:10.086Z,4.32
2022-09-30T02:14:10.069Z,4.32
2022-09-30T02:15:10.107Z,4.29
2022-09-30T02:16:10.223Z,4.25
2022-09-30T02:17:10.395Z,4.22
2022-09-30T02:18:10.259Z,4.21
2022-09-30T02:19:10.169Z,4.21
2022-09-30T02:20:10.093Z,4.18
2022-09-30T02:21:10.506Z,4.18
2022-09-30T02:22:09.991Z,4.16
2022-09-30T02:23:10.253Z,4.18
2022-09-30T02:24:10.036Z,4.15
2022-09-30T02:25:09.973Z,4.15
2022-09-30T02:26:10.149Z,4.14
2022-09-30T02:27:10.283Z,4.08
2022-09-30T02:28:10.055Z,4.08
2022-09-30T02:29:10.321Z,4.08
2022-09-30T02:30:10.325Z,4.06
2022-09-30T02:31:10.044Z,4.07
2022-09-30T02:32:09.898Z,4.06
2022-09-30T02:33:10.107Z,4.08
2022-09-30T02:34:09.854Z,4.06
2022-09-30T02:35:09.876Z,4.06
2022-09-30T02:36:10.061Z,4.06
2022-09-30T02:37:10.028Z,4.04
2022-09-30T02:38:09.952Z,4.04
2022-09-30T02:39:10.039Z,4.03
2022-09-30T02:40:09.795Z,4.04
2022-09-30T02:41:09.841Z,4.06
2022-09-30T02:42:10.140Z,4.06
2022-09-30T02:43:09.770Z,4.06
2022-09-30T02:44:09.974Z,4.06
2022-09-30T02:45:09.755Z,4.04
2022-09-30T02:46:09.847Z,4.04
2022-09-30T02:47:09.807Z,4.04
2022-09-30T02:48:09.822Z,4.04
2022-09-30T02:49:09.710Z,4.01
2022-09-30T02:50:09.767Z,4.01
2022-09-30T02:51:09.772Z,4.01
2022-09-30T02:52:09.703Z,4.01
2022-09-30T02:53:09.715Z,4.03
2022-09-30T02:54:09.657Z,4.06
2022-09-30T02:55:09.637Z,4.07
2022-09-30T02:56:09.785Z,4.06
2022-09-30T02:57:09.803Z,4.07
2022-09-30T02:58:09.611Z,4.06
2022-09-30T02:59:09.871Z,4.07
2022-09-30T03:00:12.983Z,4.06
2022-09-30T03:01:09.620Z,4.06
2022-09-30T03:02:09.701Z,4.06
2022-09-30T03:03:10.104Z,4.07
2022-09-30T03:04:09.563Z,4.07
2022-09-30T03:05:09.839Z,4.08
2022-09-30T03:06:09.553Z,4.04
2022-09-30T03:07:09.735Z,4.03
2022-09-30T03:08:09.497Z,4.03
2022-09-30T03:09:09.553Z,4.01
2022-09-30T03:10:09.565Z,4.03
2022-09-30T03:11:09.606Z,4.03
2022-09-30T03:12:09.471Z,4.04
2022-09-30T03:13:09.664Z,4.04
2022-09-30T03:14:09.633Z,4.03
2022-09-30T03:15:09.483Z,4.03
2022-09-30T03:16:13.233Z,4.04
2022-09-30T03:17:09.834Z,4.01
2022-09-30T03:18:09.650Z,4.03
2022-09-30T03:19:09.452Z,4.04
2022-09-30T03:20:09.427Z,4.03
2022-09-30T03:21:09.487Z,4.03
2022-09-30T03:22:09.558Z,4.04
2022-09-30T03:23:09.668Z,4.06
2022-09-30T03:24:09.378Z,4.06
2022-09-30T03:25:09.400Z,4.06
2022-09-30T03:26:09.494Z,4.07
2022-09-30T03:27:09.550Z,4.06
2022-09-30T03:28:09.595Z,4.06
2022-09-30T03:29:09.519Z,4.08
2022-09-30T03:30:09.567Z,4.10
2022-09-30T03:31:09.355Z,4.14
2022-09-30T03:32:09.313Z,4.12
2022-09-30T03:33:09.321Z,4.12
2022-09-30T03:34:09.342Z,4.08
2022-09-30T03:35:09.552Z,4.08
2022-09-30T03:36:09.467Z,4.06
2022-09-30T03:37:09.450Z,4.08
2022-09-30T03:38:09.349Z,4.10
2022-09-30T03:39:09.316Z,4.08
2022-09-30T03:40:09.232Z,4.10
2022-09-30T03:41:09.265Z,4.10
2022-09-30T03:42:09.389Z,4.12
2022-09-30T03:43:09.264Z,4.08
2022-09-30T03:44:09.405Z,4.12
2022-09-30T03:45:09.371Z,4.10
2022-09-30T03:46:09.345Z,4.10
2022-09-30T03:47:09.354Z,4.08
2022-09-30T03:48:09.276Z,4.07
2022-09-30T03:49:09.286Z,4.08
2022-09-30T03:50:09.347Z,4.07
2022-09-30T03:51:09.114Z,4.07
2022-09-30T03:52:09.194Z,4.06
2022-09-30T03:53:09.186Z,4.06
2022-09-30T03:54:09.474Z,4.01
2022-09-30T03:55:09.497Z,4.01
2022-09-30T03:56:09.089Z,4.00
2022-09-30T03:57:09.088Z,3.98
2022-09-30T03:58:09.043Z,3.97
2022-09-30T03:59:09.441Z,3.96
2022-09-30T04:00:09.071Z,3.92
2022-09-30T04:01:09.167Z,3.94
2022-09-30T04:02:09.224Z,3.90
2022-09-30T04:03:09.232Z,3.92
2022-09-30T04:04:08.999Z,3.92
2022-09-30T04:05:09.048Z,3.90
2022-09-30T04:06:08.965Z,3.92
2022-09-30T04:07:08.953Z,3.90
2022-09-30T04:08:08.947Z,3.90
2022-09-30T04:09:09.190Z,3.88
2022-09-30T04:10:09.171Z,3.89
2022-09-30T04:11:09.078Z,3.89
2022-09-30T04:12:08.959Z,3.90
2022-09-30T04:13:08.996Z,3.89
2022-09-30T04:14:08.888Z,3.86
2022-09-30T04:15:08.906Z,3.86
2022-09-30T04:16:08.972Z,3.86
2022-09-30T04:17:08.922Z,3.88
2022-09-30T04:18:09.017Z,3.85
2022-09-30T04:19:09.165Z,3.88
2022-09-30T04:20:08.966Z,3.86
2022-09-30T04:21:08.924Z,3.85
2022-09-30T04:22:08.793Z,3.85
2022-09-30T04:23:08.862Z,3.86
2022-09-30T04:24:08.798Z,3.82
2022-09-30T04:25:09.186Z,3.82
2022-09-30T04:26:08.991Z,3.80
2022-09-30T04:27:08.962Z,3.79
2022-09-30T04:28:08.785Z,3.79
2022-09-30T04:29:08.772Z,3.78
2022-09-30T04:30:08.744Z,3.78
2022-09-30T04:31:08.834Z,3.76
2022-09-30T04:32:08.728Z,3.78
2022-09-30T04:33:08.801Z,3.79
2022-09-30T04:34:08.714Z,3.79
2022-09-30T04:35:08.687Z,3.79
2022-09-30T04:36:09.680Z,3.80
2022-09-30T04:37:11.021Z,3.80
2022-09-30T04:38:08.679Z,3.80
2022-09-30T04:39:08.641Z,3.83
2022-09-30T04:40:08.637Z,3.80
2022-09-30T04:41:08.629Z,3.82
2022-09-30T04:42:08.624Z,3.82
2022-09-30T04:43:08.582Z,3.83
2022-09-30T04:44:08.559Z,3.83
2022-09-30T04:45:08.635Z,3.85
2022-09-30T04:46:08.585Z,3.85
2022-09-30T04:47:08.584Z,3.83
2022-09-30T04:48:08.516Z,3.85
2022-09-30T04:49:09.560Z,3.88
2022-09-30T04:50:08.510Z,3.88
2022-09-30T04:51:08.538Z,3.88
2022-09-30T04:52:08.511Z,3.88
2022-09-30T04:53:08.524Z,3.88
2022-09-30T04:54:08.683Z,3.86
2022-09-30T04:55:08.476Z,3.86
2022-09-30T04:56:08.597Z,3.89
2022-09-30T04:57:08.432Z,3.86
2022-09-30T04:58:08.430Z,3.88
2022-09-30T04:59:08.633Z,3.88
2022-09-30T05:00:08.537Z,3.89
2022-09-30T05:01:08.667Z,3.88
2022-09-30T05:02:08.590Z,3.86
2022-09-30T05:03:08.463Z,3.86
2022-09-30T05:04:08.407Z,3.85
2022-09-30T05:05:08.446Z,3.83
2022-09-30T05:06:08.442Z,3.82
2022-09-30T05:07:08.384Z,3.82
2022-09-30T05:08:08.379Z,3.80
2022-09-30T05:09:08.773Z,3.79
2022-09-30T05:10:08.388Z,3.79
2022-09-30T05:11:08.635Z,3.79
2022-09-30T05:12:08.486Z,3.76
2022-09-30T05:13:08.582Z,3.76
2022-09-30T05:14:09.183Z,3.75
2022-09-30T05:15:08.527Z,3.75
2022-09-30T05:16:08.340Z,3.76
2022-09-30T05:17:08.285Z,3.76
2022-09-30T05:18:08.422Z,3.76
2022-09-30T05:19:08.250Z,3.76
2022-09-30T05:20:08.321Z,3.75
2022-09-30T05:21:08.263Z,3.78
2022-09-30T05:22:08.350Z,3.72
2022-09-30T05:23:08.494Z,3.72
2022-09-30T05:24:08.196Z,3.72
2022-09-30T05:25:08.186Z,3.75
2022-09-30T05:26:12.014Z,3.72
2022-09-30T05:27:08.189Z,3.72
2022-09-30T05:28:08.150Z,3.72
2022-09-30T05:29:08.190Z,3.72
2022-09-30T05:30:08.143Z,3.71
2022-09-30T05:31:08.222Z,3.75
2022-09-30T05:32:08.127Z,3.76
2022-09-30T05:33:08.108Z,3.78
2022-09-30T05:34:08.108Z,3.79
2022-09-30T05:35:08.149Z,3.79
2022-09-30T05:36:08.104Z,3.78
2022-09-30T05:37:08.077Z,3.79
2022-09-30T05:38:08.085Z,3.79
2022-09-30T05:39:08.029Z,3.79
2022-09-30T05:40:08.069Z,3.78
2022-09-30T05:41:08.278Z,3.78
2022-09-30T05:42:10.919Z,3.79
2022-09-30T05:43:08.029Z,3.79
2022-09-30T05:44:08.028Z,3.80
2022-09-30T05:45:08.069Z,3.80
2022-09-30T05:46:08.003Z,3.80
2022-09-30T05:47:08.050Z,3.82
2022-09-30T05:48:07.995Z,3.83
2022-09-30T05:49:07.960Z,3.82
2022-09-30T05:50:07.941Z,3.83
2022-09-30T05:51:07.955Z,3.85
2022-09-30T05:52:07.923Z,3.86
2022-09-30T05:53:07.964Z,3.90
2022-09-30T05:54:07.958Z,3.90
2022-09-30T05:55:07.908Z,3.89
2022-09-30T05:56:07.879Z,3.90
2022-09-30T05:57:07.877Z,3.89
2022-09-30T05:58:07.878Z,3.89
2022-09-30T05:59:07.876Z,3.89
2022-09-30T06:00:07.846Z,3.89
2022-09-30T06:01:12.883Z,3.92
2022-09-30T06:02:07.970Z,3.94
2022-09-30T06:03:07.920Z,3.94
2022-09-30T06:04:07.829Z,3.96
2022-09-30T06:05:07.821Z,3.97
2022-09-30T06:06:07.828Z,4.00
2022-09-30T06:07:10.495Z,4.03
2022-09-30T06:08:07.789Z,4.04
2022-09-30T06:09:07.847Z,4.07
2022-09-30T06:10:07.757Z,4.08
2022-09-30T06:11:07.755Z,4.12
2022-09-30T06:12:07.722Z,4.16
2022-09-30T06:13:07.710Z,4.19
2022-09-30T06:14:07.707Z,4.22
2022-09-30T06:15:07.682Z,4.24
2022-09-30T06:16:07.802Z,4.26
2022-09-30T06:17:07.746Z,4.28
2022-09-30T06:18:07.675Z,4.32
2022-09-30T06:19:07.643Z,4.34
2022-09-30T06:20:07.662Z,4.37
2022-09-30T06:21:07.675Z,4.39
2022-09-30T06:22:07.589Z,4.40
2022-09-30T06:23:07.642Z,4.42
2022-09-30T06:24:07.627Z,4.43
2022-09-30T06:25:07.661Z,4.44
2022-09-30T06:26:07.628Z,4.44
2022-09-30T06:27:07.586Z,4.47
2022-09-30T06:28:07.640Z,4.50
2022-09-30T06:29:07.642Z,4.52
2022-09-30T06:30:07.564Z,4.55
2022-09-30T06:31:07.595Z,4.55
2022-09-30T06:32:07.588Z,4.59
2022-09-30T06:33:07.666Z,4.61
2022-09-30T06:34:07.675Z,4.61
2022-09-30T06:35:07.904Z,4.67
2022-09-30T06:36:07.503Z,4.69
2022-09-30T06:37:07.575Z,4.73
2022-09-30T06:38:07.630Z,4.79
2022-09-30T06:39:12.806Z,4.83
2022-09-30T06:40:08.397Z,4.88
2022-09-30T06:41:07.506Z,4.91
2022-09-30T06:42:07.466Z,4.94
2022-09-30T06:43:07.440Z,4.95
2022-09-30T06:44:07.676Z,4.99
2022-09-30T06:45:07.576Z,5.02
2022-09-30T06:46:15.288Z,5.05
2022-09-30T06:47:18.312Z,5.10
2022-09-30T06:48:07.447Z,5.16
2022-09-30T06:49:13.327Z,5.19
2022-09-30T06:50:10.060Z,5.23
2022-09-30T06:51:07.358Z,5.28
2022-09-30T06:52:07.464Z,5.32
2022-09-30T06:53:07.397Z,5.38
2022-09-30T06:54:07.494Z,5.45
2022-09-30T06:55:07.359Z,5.55
2022-09-30T06:56:07.404Z,5.63
2022-09-30T06:57:07.321Z,5.70
2022-09-30T06:58:07.284Z,5.78
2022-09-30T06:59:07.497Z,5.88
2022-09-30T07:00:07.293Z,5.95
2022-09-30T07:01:07.363Z,6.01
2022-09-30T07:02:07.304Z,6.09
2022-09-30T07:03:07.296Z,6.19
2022-09-30T07:04:07.270Z,6.30
2022-09-30T07:05:07.303Z,6.43
2022-09-30T07:06:07.240Z,6.53
2022-09-30T07:07:07.266Z,6.62
2022-09-30T07:08:07.192Z,6.72
2022-09-30T07:09:07.338Z,6.81
2022-09-30T07:10:07.351Z,6.89
2022-09-30T07:11:07.251Z,6.98
2022-09-30T07:12:07.273Z,7.07
2022-09-30T07:13:07.253Z,7.12
2022-09-30T07:14:07.153Z,7.22
2022-09-30T07:15:10.279Z,7.27
2022-09-30T07:16:07.275Z,7.35
2022-09-30T07:17:07.125Z,7.42
2022-09-30T07:18:07.422Z,7.47
2022-09-30T07:19:07.258Z,7.52
2022-09-30T07:20:07.332Z,7.59
2022-09-30T07:21:07.091Z,7.66
2022-09-30T07:22:07.127Z,7.71
2022-09-30T07:23:07.102Z,7.78
2022-09-30T07:24:07.027Z,7.81
2022-09-30T07:25:07.000Z,7.89
2022-09-30T07:26:07.083Z,7.99
2022-09-30T07:27:07.062Z,8.08
2022-09-30T07:28:07.219Z,8.17
2022-09-30T07:29:07.148Z,8.28
2022-09-30T07:30:10.748Z,8.35
2022-09-30T07:31:31.147Z,8.40
2022-09-30T07:32:07.077Z,8.47
2022-09-30T07:33:06.992Z,8.51
2022-09-30T07:34:07.171Z,8.55
2022-09-30T07:35:07.110Z,8.60
2022-09-30T07:36:07.118Z,8.65
2022-09-30T07:37:06.961Z,8.68
2022-09-30T07:38:07.015Z,8.71
2022-09-30T07:39:07.271Z,8.72
2022-09-30T07:40:06.908Z,8.76
2022-09-30T07:41:06.928Z,8.81
2022-09-30T07:42:06.868Z,8.83
2022-09-30T07:43:06.833Z,8.87
2022-09-30T07:44:06.865Z,8.91
2022-09-30T07:45:06.901Z,8.96
2022-09-30T07:46:06.917Z,9.01
2022-09-30T07:47:06.924Z,9.04
2022-09-30T07:48:07.109Z,9.10
2022-09-30T07:49:06.902Z,9.16
2022-09-30T07:50:06.901Z,9.23
2022-09-30T07:51:06.786Z,9.28
2022-09-30T07:52:06.743Z,9.32
2022-09-30T07:53:06.763Z,9.35
2022-09-30T07:54:06.850Z,9.40
2022-09-30T07:55:06.806Z,9.46
2022-09-30T07:56:06.778Z,9.52
2022-09-30T07:57:11.056Z,9.60
2022-09-30T07:58:06.719Z,9.64
2022-09-30T07:59:06.884Z,9.70
2022-09-30T08:00:23.486Z,9.75
2022-09-30T08:01:06.747Z,9.82
2022-09-30T08:02:06.771Z,9.86
2022-09-30T08:03:06.656Z,9.94
2022-09-30T08:04:06.696Z,9.97
2022-09-30T08:05:06.610Z,10.01
2022-09-30T08:06:06.709Z,10.07
2022-09-30T08:07:06.679Z,10.14
2022-09-30T08:08:06.596Z,10.17
2022-09-30T08:09:06.682Z,10.22
2022-09-30T08:10:06.645Z,10.30
2022-09-30T08:11:06.620Z,10.32
2022-09-30T08:12:06.561Z,10.33
2022-09-30T08:13:06.554Z,10.42
2022-09-30T08:14:06.542Z,10.46
2022-09-30T08:15:06.599Z,10.52
2022-09-30T08:16:06.622Z,10.56
2022-09-30T08:17:06.581Z,10.60
2022-09-30T08:18:06.697Z,10.68
2022-09-30T08:19:06.441Z,10.77
2022-09-30T08:20:10.899Z,10.81
2022-09-30T08:21:06.485Z,10.88
2022-09-30T08:22:06.684Z,10.92
2022-09-30T08:23:06.427Z,10.98
2022-09-30T08:24:06.467Z,11.02
2022-09-30T08:25:06.442Z,11.10
2022-09-30T08:26:06.491Z,11.16
2022-09-30T08:27:06.475Z,11.21
2022-09-30T08:28:06.442Z,11.28
2022-09-30T08:29:06.455Z,11.34
2022-09-30T08:30:06.398Z,11.38
2022-09-30T08:31:06.684Z,11.43
2022-09-30T08:32:06.545Z,11.43
2022-09-30T08:33:06.531Z,11.46
2022-09-30T08:34:06.387Z,11.50
2022-09-30T08:35:06.623Z,11.56
2022-09-30T08:36:06.278Z,11.62
2022-09-30T08:37:09.556Z,11.64
2022-09-30T08:38:06.342Z,11.70
2022-09-30T08:39:06.330Z,11.75
2022-09-30T08:40:06.316Z,11.78
2022-09-30T08:41:06.349Z,11.86
2022-09-30T08:42:19.218Z,11.89
2022-09-30T08:43:06.220Z,11.94
2022-09-30T08:44:06.234Z,11.99
2022-09-30T08:45:06.254Z,12.04
2022-09-30T08:46:06.429Z,12.06
2022-09-30T08:47:06.214Z,12.09
2022-09-30T08:48:06.277Z,12.12
2022-09-30T08:49:06.364Z,12.19
2022-09-30T08:50:06.237Z,12.24
2022-09-30T08:51:06.154Z,12.31
2022-09-30T08:52:06.403Z,12.38
2022-09-30T08:53:06.354Z,12.42
2022-09-30T08:54:06.164Z,12.46
2022-09-30T08:55:06.211Z,12.45
2022-09-30T08:56:06.233Z,12.46
2022-09-30T08:57:06.091Z,12.49
2022-09-30T08:58:06.352Z,12.60
2022-09-30T08:59:06.480Z,12.63
2022-09-30T09:00:06.268Z,12.67
2022-09-30T09:01:06.408Z,12.71
2022-09-30T09:02:06.444Z,12.77
2022-09-30T09:03:06.167Z,12.84
2022-09-30T09:04:06.133Z,12.78
2022-09-30T09:05:06.206Z,12.77
2022-09-30T09:06:06.340Z,12.74
2022-09-30T09:07:05.994Z,12.75
2022-09-30T09:08:06.168Z,12.81
2022-09-30T09:09:06.116Z,12.88
2022-09-30T09:10:06.056Z,12.92
2022-09-30T09:11:06.077Z,12.99
2022-09-30T09:12:05.981Z,13.09
2022-09-30T09:13:05.989Z,13.18
2022-09-30T09:14:05.971Z,13.20
2022-09-30T09:15:06.077Z,13.24
2022-09-30T09:16:06.048Z,13.24
2022-09-30T09:17:06.311Z,13.22
2022-09-30T09:18:22.534Z,13.29
2022-09-30T09:19:05.946Z,13.36
2022-09-30T09:20:06.111Z,13.49
2022-09-30T09:21:05.877Z,13.63
2022-09-30T09:22:06.456Z,13.76
2022-09-30T09:23:06.156Z,13.89
2022-09-30T09:24:06.153Z,13.98
2022-09-30T09:25:06.035Z,14.06
2022-09-30T09:26:06.090Z,14.12
2022-09-30T09:27:06.818Z,14.19
2022-09-30T09:28:05.980Z,14.20
2022-09-30T09:29:06.447Z,14.32
2022-09-30T09:30:05.825Z,14.35
2022-09-30T09:31:05.814Z,14.46
2022-09-30T09:32:06.059Z,14.52
2022-09-30T09:33:06.360Z,14.68
2022-09-30T09:34:05.964Z,14.81
2022-09-30T09:35:05.830Z,14.98
2022-09-30T09:36:05.754Z,15.03
2022-09-30T09:37:06.062Z,15.09
2022-09-30T09:38:05.771Z,15.12
2022-09-30T09:39:05.759Z,15.23
2022-09-30T09:40:06.738Z,15.27
2022-09-30T09:41:05.905Z,15.15
2022-09-30T09:42:06.045Z,15.13
2022-09-30T09:43:05.664Z,15.17
2022-09-30T09:44:05.665Z,15.28
2022-09-30T09:45:05.667Z,15.45
2022-09-30T09:46:05.663Z,15.64
2022-09-30T09:47:06.042Z,15.72
2022-09-30T09:48:05.658Z,15.82
2022-09-30T09:49:06.065Z,15.78
2022-09-30T09:50:05.615Z,15.74
2022-09-30T09:51:05.669Z,15.81
2022-09-30T09:52:05.581Z,15.79
2022-09-30T09:53:06.280Z,15.85
2022-09-30T09:54:05.633Z,15.93
2022-09-30T09:55:05.841Z,16.12
2022-09-30T09:56:05.825Z,16.42
2022-09-30T09:57:05.875Z,16.77
2022-09-30T09:58:05.636Z,16.93
2022-09-30T09:59:05.596Z,17.07
2022-09-30T10:00:05.577Z,17.25
2022-09-30T10:01:08.995Z,17.44
2022-09-30T10:02:06.050Z,17.71
2022-09-30T10:03:05.558Z,17.94
2022-09-30T10:04:05.435Z,17.91
2022-09-30T10:05:05.640Z,17.99
2022-09-30T10:06:05.562Z,18.03
2022-09-30T10:07:05.466Z,17.79
2022-09-30T10:08:05.644Z,17.94
2022-09-30T10:09:05.485Z,18.07
2022-09-30T10:10:05.381Z,18.21
2022-09-30T10:11:05.466Z,18.39
2022-09-30T10:12:05.539Z,18.72
2022-09-30T10:13:05.418Z,19.10
2022-09-30T10:14:05.422Z,19.46
2022-09-30T10:15:05.539Z,19.78
2022-09-30T10:16:05.620Z,20.08
2022-09-30T10:17:05.583Z,20.41
2022-09-30T10:18:05.726Z,20.74
2022-09-30T10:19:09.455Z,20.98
2022-09-30T10:20:05.466Z,20.91
2022-09-30T10:21:05.611Z,21.05
2022-09-30T10:22:05.298Z,21.30
2022-09-30T10:23:05.425Z,21.19
2022-09-30T10:24:05.571Z,21.02
2022-09-30T10:25:05.647Z,21.14
2022-09-30T10:26:05.512Z,21.29
2022-09-30T10:27:05.687Z,21.34
2022-09-30T10:28:05.719Z,21.45
2022-09-30T10:29:05.654Z,21.64
2022-09-30T10:30:05.571Z,21.56
2022-09-30T10:31:05.595Z,21.54
2022-09-30T10:32:05.292Z,21.69
2022-09-30T10:33:05.394Z,21.78
2022-09-30T10:34:05.215Z,21.94
2022-09-30T10:35:05.400Z,22.06
2022-09-30T10:36:05.786Z,22.16
2022-09-30T10:37:05.124Z,22.12
2022-09-30T10:38:05.395Z,22.22
2022-09-30T10:39:06.960Z,22.22
2022-09-30T10:40:05.174Z,22.02
2022-09-30T10:41:05.291Z,22.02
2022-09-30T10:42:05.170Z,21.97
2022-09-30T10:43:05.204Z,22.02
2022-09-30T10:44:05.328Z,21.85
2022-09-30T10:45:05.532Z,21.83
2022-09-30T10:46:25.069Z,21.91
2022-09-30T10:47:05.249Z,21.97
2022-09-30T10:48:05.308Z,22.01
2022-09-30T10:49:05.081Z,22.19
2022-09-30T10:50:05.082Z,22.06
2022-09-30T10:51:05.102Z,21.92
2022-09-30T10:52:05.076Z,21.64
2022-09-30T10:53:05.140Z,21.39
2022-09-30T10:54:05.527Z,21.11
2022-09-30T10:55:07.833Z,21.17
2022-09-30T10:56:05.030Z,21.41
2022-09-30T10:57:05.127Z,21.42
2022-09-30T10:58:04.944Z,21.51
2022-09-30T10:59:05.301Z,21.76
2022-09-30T11:00:05.055Z,21.74
2022-09-30T11:01:04.927Z,21.48
2022-09-30T11:02:06.166Z,21.16
2022-09-30T11:03:05.191Z,20.77
2022-09-30T11:04:04.914Z,20.76
2022-09-30T11:05:05.018Z,20.62
2022-09-30T11:06:05.620Z,20.46
2022-09-30T11:07:04.910Z,20.15
2022-09-30T11:08:04.937Z,19.83
2022-09-30T11:09:04.937Z,19.53
2022-09-30T11:10:04.825Z,19.29
2022-09-30T11:11:08.703Z,19.32
2022-09-30T11:12:04.863Z,19.24
2022-09-30T11:13:04.952Z,18.92
2022-09-30T11:14:05.002Z,18.59
2022-09-30T11:15:05.275Z,18.52
2022-09-30T11:16:05.075Z,18.67
2022-09-30T11:17:05.011Z,19.10
2022-09-30T11:18:04.820Z,19.36
2022-09-30T11:19:04.928Z,19.84
2022-09-30T11:20:04.802Z,20.28
2022-09-30T11:21:04.813Z,20.72
2022-09-30T11:22:04.993Z,20.99
2022-09-30T11:23:05.081Z,21.04
2022-09-30T11:24:05.340Z,21.08
2022-09-30T11:25:10.225Z,21.06
2022-09-30T11:26:04.728Z,21.17
2022-09-30T11:27:04.989Z,21.04
2022-09-30T11:28:04.748Z,20.41
2022-09-30T11:29:05.032Z,20.27
2022-09-30T11:30:04.966Z,20.43
2022-09-30T11:31:07.168Z,20.49
2022-09-30T11:32:04.811Z,20.79
2022-09-30T11:33:04.677Z,20.93
2022-09-30T11:34:04.900Z,21.09
2022-09-30T11:35:04.708Z,21.19
2022-09-30T11:36:04.786Z,21.23
2022-09-30T11:37:04.671Z,20.77
2022-09-30T11:38:04.545Z,20.89
2022-09-30T11:39:04.492Z,21.04
2022-09-30T11:40:04.538Z,20.56
2022-09-30T11:41:05.123Z,20.28
2022-09-30T11:42:04.604Z,19.90
2022-09-30T11:43:08.127Z,19.47
2022-09-30T11:44:04.596Z,19.51
2022-09-30T11:45:04.595Z,19.58
2022-09-30T11:46:04.506Z,19.69
2022-09-30T11:47:05.134Z,19.94
2022-09-30T11:48:04.467Z,20.03
2022-09-30T11:49:04.504Z,20.05
2022-09-30T11:50:04.491Z,19.95
2022-09-30T11:51:04.479Z,20.09
2022-09-30T11:52:04.682Z,19.76
2022-09-30T11:53:04.498Z,19.65
2022-09-30T11:54:04.508Z,19.50
2022-09-30T11:55:04.577Z,19.54
2022-09-30T11:56:04.488Z,19.61
2022-09-30T11:57:04.450Z,19.66
2022-09-30T11:58:22.474Z,19.94
2022-09-30T11:59:04.461Z,20.20
2022-09-30T12:00:04.353Z,20.42
2022-09-30T12:01:04.623Z,20.65
2022-09-30T12:02:04.551Z,20.91
2022-09-30T12:03:09.294Z,21.06
2022-09-30T12:04:04.840Z,21.14
2022-09-30T12:05:04.484Z,21.32
2022-09-30T12:06:04.479Z,21.46
2022-09-30T12:07:04.351Z,21.51
2022-09-30T12:08:04.340Z,21.66
2022-09-30T12:09:04.418Z,21.82
2022-09-30T12:10:04.254Z,21.56
2022-09-30T12:11:04.342Z,21.54
2022-09-30T12:12:04.436Z,21.48
2022-09-30T12:13:04.388Z,21.59
2022-09-30T12:14:04.240Z,21.66
2022-09-30T12:15:04.177Z,21.57
2022-09-30T12:16:04.264Z,21.48
2022-09-30T12:17:04.322Z,21.42
2022-09-30T12:18:04.336Z,21.39
2022-09-30T12:19:04.398Z,21.06
2022-09-30T12:20:04.190Z,21.14
2022-09-30T12:21:04.284Z,21.30
2022-09-30T12:22:04.151Z,21.41
2022-09-30T12:23:04.227Z,21.14
2022-09-30T12:24:04.426Z,20.96
2022-09-30T12:25:04.132Z,21.04
2022-09-30T12:26:04.363Z,21.16
2022-09-30T12:27:04.457Z,21.14
2022-09-30T12:28:04.243Z,20.99
2022-09-30T12:29:04.167Z,20.72
2022-09-30T12:30:04.171Z,20.76
2022-09-30T12:31:04.234Z,20.79
2022-09-30T12:32:04.180Z,20.84
2022-09-30T12:33:04.106Z,20.77
2022-09-30T12:34:04.033Z,20.84
2022-09-30T12:35:04.144Z,20.46
2022-09-30T12:36:04.104Z,20.06
2022-09-30T12:37:04.529Z,19.63
2022-09-30T12:38:04.058Z,19.08
2022-09-30T12:39:04.028Z,18.72
2022-09-30T12:40:04.289Z,18.76
2022-09-30T12:41:04.008Z,18.87
2022-09-30T12:42:04.311Z,19.08
2022-09-30T12:43:04.156Z,19.29
2022-09-30T12:44:03.916Z,19.55
2022-09-30T12:45:03.956Z,19.42
2022-09-30T12:46:04.555Z,19.32
2022-09-30T12:47:04.162Z,19.48
2022-09-30T12:48:03.996Z,19.66
2022-09-30T12:49:03.867Z,19.40
2022-09-30T12:50:03.903Z,19.54
2022-09-30T12:51:04.075Z,19.57
2022-09-30T12:52:04.759Z,19.63
2022-09-30T12:53:04.216Z,19.69
2022-09-30T12:54:03.950Z,19.86
2022-09-30T12:55:04.492Z,19.91
2022-09-30T12:56:03.857Z,19.97
2022-09-30T12:57:03.797Z,20.02
2022-09-30T12:58:03.861Z,20.12
2022-09-30T12:59:03.849Z,20.13
2022-09-30T13:00:03.949Z,19.79
2022-09-30T13:01:03.797Z,19.60
2022-09-30T13:02:03.948Z,19.61
2022-09-30T13:03:03.770Z,19.75
2022-09-30T13:04:03.850Z,19.83
2022-09-30T13:05:03.805Z,19.93
2022-09-30T13:06:03.757Z,19.88
2022-09-30T13:07:03.757Z,19.83
2022-09-30T13:08:03.759Z,19.94